Time;durP1;ratioP1;P1;durP2;ratioP2;P2;SDS_P1;SDS_P2;PMS_P1;PMS_P2;Temp;Humidity;BMP_temperature;BMP_pressure;BME280_temperature;BME280_humidity;BME280_pressure;Samples;Min_cycle;Max_cycle;Signal;HPM_P1;HPM_P2
2021/07/06 00:00:19;;;;;;;9.67;5.50;;;;;;;;;;739115;187;1020828;-76
2021/07/06 00:02:45;;;;;;;9.03;6.00;;;;;;;;;;738448;187;919659;-77
2021/07/06 00:05:11;;;;;;;7.77;5.67;;;;;;;;;;738405;186;924714;-77
2021/07/06 00:07:37;;;;;;;14.03;4.83;;;;;;;;;;746668;186;919136;-76
2021/07/06 00:10:04;;;;;;;7.73;5.23;;;;;;;;;;740801;186;917954;-77
2021/07/06 00:12:30;;;;;;;7.67;6.30;;;;;;;;;;740500;187;918961;-75
2021/07/06 00:14:55;;;;;;;10.00;5.50;;;;;;;;;;743379;187;920651;-77
2021/07/06 00:17:23;;;;;;;9.90;6.97;;;;;;;;;;740564;186;919476;-76
2021/07/06 00:19:49;;;;;;;12.50;5.57;;;;;;;;;;740412;186;973998;-75
2021/07/06 00:22:15;;;;;;;7.33;5.83;;;;;;;;;;740426;186;919115;-75
2021/07/06 00:24:41;;;;;;;5.47;4.70;;;;;;;;;;745472;186;918063;-75
2021/07/06 00:27:06;;;;;;;9.63;5.27;;;;;;;;;;742756;186;918439;-76
2021/07/06 00:29:33;;;;;;;11.37;5.50;;;;;;;;;;739118;186;918455;-75
2021/07/06 00:31:58;;;;;;;7.60;4.60;;;;;;;;;;745908;186;918248;-75
2021/07/06 00:34:24;;;;;;;7.60;4.77;;;;;;;;;;743098;188;921316;-75
2021/07/06 00:36:50;;;;;;;20.07;7.53;;;;;;;;;;741399;186;920466;-76
2021/07/06 00:39:16;;;;;;;14.63;5.93;;;;;;;;;;743953;186;914601;-75
2021/07/06 00:41:41;;;;;;;8.43;4.95;;;;;;;;;;738927;186;919661;-74
2021/07/06 00:44:14;;;;;;;13.00;5.57;;;;;;;;;;737762;186;1017747;-74
2021/07/06 00:46:39;;;;;;;14.90;5.90;;;;;;;;;;738465;187;914688;-74
2021/07/06 00:49:05;;;;;;;10.27;4.80;;;;;;;;;;743713;187;916409;-75
2021/07/06 00:51:31;;;;;;;10.23;6.20;;;;;;;;;;738130;187;916685;-73
2021/07/06 00:53:56;;;;;;;8.87;5.57;;;;;;;;;;739517;187;918847;-76
2021/07/06 00:56:22;;;;;;;9.97;6.40;;;;;;;;;;743841;187;966083;-74
2021/07/06 00:58:48;;;;;;;25.93;6.30;;;;;;;;;;745649;187;918983;-75
2021/07/06 01:01:14;;;;;;;8.77;5.13;;;;;;;;;;739516;187;919046;-75
2021/07/06 01:03:40;;;;;;;10.83;5.87;;;;;;;;;;742580;187;919777;-75
2021/07/06 01:06:06;;;;;;;9.87;6.27;;;;;;;;;;738690;187;919118;-74
2021/07/06 01:08:31;;;;;;;11.90;5.40;;;;;;;;;;742476;186;815938;-75
2021/07/06 01:10:57;;;;;;;9.47;5.00;;;;;;;;;;741171;187;918478;-74
2021/07/06 01:13:23;;;;;;;8.13;4.72;;;;;;;;;;740490;189;919655;-74
2021/07/06 01:15:49;;;;;;;7.60;5.30;;;;;;;;;;737828;189;919459;-73
2021/07/06 01:18:15;;;;;;;12.80;4.93;;;;;;;;;;737816;187;919065;-74
2021/07/06 01:20:43;;;;;;;11.13;5.00;;;;;;;;;;745160;187;916938;-74
2021/07/06 01:23:09;;;;;;;10.33;5.00;;;;;;;;;;739987;186;919452;-74
2021/07/06 01:25:35;;;;;;;18.43;5.90;;;;;;;;;;741225;187;919616;-74
2021/07/06 01:28:01;;;;;;;14.70;5.00;;;;;;;;;;742883;187;918678;-73
2021/07/06 01:30:27;;;;;;;5.93;4.90;;;;;;;;;;741384;185;919164;-72
2021/07/06 01:32:53;;;;;;;14.00;4.77;;;;;;;;;;742711;187;918562;-73
2021/07/06 01:35:18;;;;;;;11.53;5.20;;;;;;;;;;743112;186;919212;-73
2021/07/06 01:37:48;;;;;;;11.93;6.23;;;;;;;;;;746296;185;919619;-73
2021/07/06 01:40:14;;;;;;;14.13;6.07;;;;;;;;;;739390;186;919290;-74
2021/07/06 01:42:40;;;;;;;10.13;6.23;;;;;;;;;;738377;186;1020122;-74
2021/07/06 01:45:06;;;;;;;15.07;5.47;;;;;;;;;;744787;186;918860;-74
2021/07/06 01:47:32;;;;;;;11.13;6.63;;;;;;;;;;741954;186;918717;-75
2021/07/06 01:49:58;;;;;;;14.47;7.50;;;;;;;;;;739836;187;918808;-74
2021/07/06 01:52:24;;;;;;;15.30;6.00;;;;;;;;;;742651;187;919033;-74
2021/07/06 01:54:51;;;;;;;13.67;4.83;;;;;;;;;;739705;188;919475;-74
2021/07/06 01:57:16;;;;;;;14.90;5.70;;;;;;;;;;741549;187;907057;-74
2021/07/06 01:59:41;;;;;;;13.53;5.10;;;;;;;;;;738424;187;1021409;-74
2021/07/06 02:02:07;;;;;;;17.62;5.62;;;;;;;;;;744097;187;919435;-74
2021/07/06 02:04:33;;;;;;;22.63;6.10;;;;;;;;;;738598;187;918825;-74
2021/07/06 02:06:59;;;;;;;25.30;5.47;;;;;;;;;;740449;187;918656;-74
2021/07/06 02:09:25;;;;;;;17.60;6.10;;;;;;;;;;744455;187;918219;-73
2021/07/06 02:11:51;;;;;;;11.67;5.50;;;;;;;;;;735684;187;918528;-74
2021/07/06 02:14:17;;;;;;;13.60;6.00;;;;;;;;;;737496;187;928414;-73
2021/07/06 02:16:42;;;;;;;14.17;6.47;;;;;;;;;;742948;187;918081;-73
2021/07/06 02:19:08;;;;;;;27.58;5.80;;;;;;;;;;739799;186;919114;-74
2021/07/06 02:21:34;;;;;;;27.13;6.50;;;;;;;;;;740088;187;918683;-74
2021/07/06 02:24:00;;;;;;;13.00;7.10;;;;;;;;;;735374;187;918412;-73
2021/07/06 02:26:26;;;;;;;29.53;9.20;;;;;;;;;;748504;187;918558;-73
2021/07/06 02:28:52;;;;;;;11.63;6.50;;;;;;;;;;739874;186;923143;-73
2021/07/06 02:31:17;;;;;;;16.77;6.10;;;;;;;;;;739401;187;920076;-73
2021/07/06 02:33:43;;;;;;;14.40;7.70;;;;;;;;;;745977;187;918486;-74
2021/07/06 02:36:09;;;;;;;15.43;6.87;;;;;;;;;;741212;186;919162;-73
2021/07/06 02:38:35;;;;;;;21.90;7.47;;;;;;;;;;737925;187;1021378;-74
2021/07/06 02:41:01;;;;;;;29.35;8.75;;;;;;;;;;746885;186;918660;-72
2021/07/06 02:43:27;;;;;;;20.70;9.07;;;;;;;;;;739086;186;918692;-73
2021/07/06 02:45:53;;;;;;;16.27;8.35;;;;;;;;;;737221;186;919017;-73
2021/07/06 02:48:18;;;;;;;15.93;7.70;;;;;;;;;;745550;186;1020928;-72
2021/07/06 02:50:44;;;;;;;20.47;8.20;;;;;;;;;;739312;186;918748;-73
2021/07/06 02:53:10;;;;;;;11.87;7.40;;;;;;;;;;739691;186;918428;-72
2021/07/06 02:55:36;;;;;;;20.17;7.43;;;;;;;;;;740277;186;920532;-72
2021/07/06 02:58:02;;;;;;;11.70;7.53;;;;;;;;;;746340;186;920152;-72
2021/07/06 03:00:27;;;;;;;13.27;8.77;;;;;;;;;;739745;186;918928;-72
2021/07/06 03:02:53;;;;;;;18.97;9.70;;;;;;;;;;739379;187;920183;-72
2021/07/06 03:05:19;;;;;;;12.20;8.37;;;;;;;;;;744787;186;915824;-72
2021/07/06 03:07:45;;;;;;;23.50;9.70;;;;;;;;;;742016;186;916169;-72
2021/07/06 03:10:11;;;;;;;18.53;8.20;;;;;;;;;;740553;186;921145;-72
2021/07/06 03:12:37;;;;;;;13.57;8.83;;;;;;;;;;744315;186;915781;-72
2021/07/06 03:15:03;;;;;;;12.10;7.60;;;;;;;;;;739486;187;919476;-72
2021/07/06 03:17:28;;;;;;;18.00;8.00;;;;;;;;;;733146;186;915112;-72
2021/07/06 03:19:54;;;;;;;21.48;10.85;;;;;;;;;;741045;186;916666;-72
2021/07/06 03:22:20;;;;;;;14.10;8.10;;;;;;;;;;745337;186;918071;-72
2021/07/06 03:24:46;;;;;;;18.30;9.00;;;;;;;;;;739118;186;917891;-72
2021/07/06 03:27:12;;;;;;;66.13;10.37;;;;;;;;;;738713;187;918933;-71
2021/07/06 03:29:38;;;;;;;15.27;9.27;;;;;;;;;;744160;188;918660;-72
2021/07/06 03:32:04;;;;;;;17.60;8.57;;;;;;;;;;744213;187;919399;-72
2021/07/06 03:34:30;;;;;;;12.00;8.03;;;;;;;;;;738352;186;975083;-71
2021/07/06 03:36:56;;;;;;;15.43;8.87;;;;;;;;;;743201;187;918824;-72
2021/07/06 03:39:22;;;;;;;12.60;9.20;;;;;;;;;;742737;186;919055;-71
2021/07/06 03:41:47;;;;;;;16.33;8.73;;;;;;;;;;744790;187;919354;-71
2021/07/06 03:44:13;;;;;;;13.32;9.07;;;;;;;;;;743996;186;919144;-72
2021/07/06 03:46:39;;;;;;;21.23;8.17;;;;;;;;;;736314;186;919864;-72
2021/07/06 03:49:05;;;;;;;25.23;10.83;;;;;;;;;;737211;186;919471;-72
2021/07/06 03:51:31;;;;;;;26.10;9.90;;;;;;;;;;739535;186;919335;-71
2021/07/06 03:53:57;;;;;;;15.57;8.77;;;;;;;;;;742500;186;1841783;-72
2021/07/06 03:56:22;;;;;;;19.20;10.40;;;;;;;;;;738663;186;920394;-72
2021/07/06 03:58:48;;;;;;;18.70;9.60;;;;;;;;;;742143;186;918395;-71
2021/07/06 04:01:14;;;;;;;16.87;10.10;;;;;;;;;;746036;186;918296;-72
2021/07/06 04:03:40;;;;;;;18.13;10.73;;;;;;;;;;743246;186;919468;-72
2021/07/06 04:06:06;;;;;;;22.27;11.75;;;;;;;;;;742963;186;918535;-72
2021/07/06 04:08:32;;;;;;;39.73;12.70;;;;;;;;;;744431;186;936347;-72
2021/07/06 04:10:58;;;;;;;22.60;14.77;;;;;;;;;;739898;188;918923;-73
2021/07/06 04:13:23;;;;;;;23.23;13.40;;;;;;;;;;739778;187;917967;-73
2021/07/06 04:15:49;;;;;;;25.07;14.40;;;;;;;;;;740174;187;918624;-72
2021/07/06 04:18:15;;;;;;;26.10;15.80;;;;;;;;;;744612;186;921500;-72
2021/07/06 04:20:41;;;;;;;36.47;16.40;;;;;;;;;;740378;188;921225;-72
2021/07/06 04:23:09;;;;;;;34.07;16.80;;;;;;;;;;738660;186;1229728;-72
2021/07/06 04:25:35;;;;;;;29.90;15.47;;;;;;;;;;744773;186;918836;-72
2021/07/06 04:27:58;;;;;;;29.70;16.45;;;;;;;;;;740279;187;922151;-72
2021/07/06 04:30:24;;;;;;;34.73;18.97;;;;;;;;;;738335;187;919072;-73
2021/07/06 04:32:50;;;;;;;33.63;20.62;;;;;;;;;;744493;186;912802;-73
2021/07/06 04:35:16;;;;;;;36.43;23.43;;;;;;;;;;738848;186;916660;-73
2021/07/06 04:37:42;;;;;;;36.83;22.40;;;;;;;;;;737351;187;919084;-73
2021/07/06 04:40:08;;;;;;;35.03;21.70;;;;;;;;;;743428;187;918941;-73
2021/07/06 04:42:34;;;;;;;36.60;22.40;;;;;;;;;;736880;187;919077;-73
2021/07/06 04:45:00;;;;;;;47.67;21.40;;;;;;;;;;737317;187;918679;-73
2021/07/06 04:47:26;;;;;;;36.17;22.20;;;;;;;;;;739829;187;919001;-73
2021/07/06 04:49:51;;;;;;;29.77;21.30;;;;;;;;;;741828;187;917222;-72
2021/07/06 04:52:17;;;;;;;33.90;22.50;;;;;;;;;;739463;186;919090;-72
2021/07/06 04:54:43;;;;;;;32.57;24.20;;;;;;;;;;738712;186;919355;-72
2021/07/06 04:57:09;;;;;;;31.00;21.77;;;;;;;;;;742651;187;917167;-70
2021/07/06 04:59:35;;;;;;;29.37;20.20;;;;;;;;;;737722;187;918295;-73
2021/07/06 05:02:01;;;;;;;28.10;20.37;;;;;;;;;;739508;187;922836;-71
2021/07/06 05:04:26;;;;;;;30.33;19.70;;;;;;;;;;745813;187;919246;-72
2021/07/06 05:06:52;;;;;;;25.00;16.63;;;;;;;;;;741949;186;917176;-72
2021/07/06 05:09:18;;;;;;;24.15;18.58;;;;;;;;;;739789;186;918108;-71
2021/07/06 05:11:44;;;;;;;27.30;17.30;;;;;;;;;;740819;186;918994;-72
2021/07/06 05:14:10;;;;;;;19.20;15.17;;;;;;;;;;744274;186;919508;-73
2021/07/06 05:16:36;;;;;;;20.70;15.47;;;;;;;;;;740648;186;918830;-74
2021/07/06 05:19:02;;;;;;;28.58;16.80;;;;;;;;;;738093;186;918806;-73
2021/07/06 05:21:27;;;;;;;21.53;16.80;;;;;;;;;;743835;186;918191;-73
2021/07/06 05:23:53;;;;;;;16.83;13.60;;;;;;;;;;739061;186;917951;-74
2021/07/06 05:26:19;;;;;;;15.97;12.30;;;;;;;;;;739531;187;1018861;-76
2021/07/06 05:28:45;;;;;;;20.53;12.10;;;;;;;;;;745863;186;910367;-73
2021/07/06 05:31:11;;;;;;;13.97;10.40;;;;;;;;;;740773;187;1123273;-73
2021/07/06 05:33:37;;;;;;;15.03;10.60;;;;;;;;;;743581;186;917959;-74
2021/07/06 05:36:04;;;;;;;11.60;8.80;;;;;;;;;;749215;186;917649;-73
2021/07/06 05:38:30;;;;;;;9.60;8.40;;;;;;;;;;745201;187;917473;-74
2021/07/06 05:40:57;;;;;;;10.27;9.17;;;;;;;;;;737519;187;1021049;-73
2021/07/06 05:43:21;;;;;;;11.98;7.20;;;;;;;;;;735160;187;1064831;-73
2021/07/06 05:45:47;;;;;;;8.03;6.60;;;;;;;;;;745029;186;791656;-73
2021/07/06 05:48:14;;;;;;;9.70;6.90;;;;;;;;;;740802;187;817973;-72
2021/07/06 05:50:39;;;;;;;13.70;7.80;;;;;;;;;;736185;186;932889;-73
2021/07/06 05:53:05;;;;;;;14.23;7.80;;;;;;;;;;739947;187;1021459;-73
2021/07/06 05:55:30;;;;;;;11.63;8.20;;;;;;;;;;738027;186;918019;-72
2021/07/06 05:57:56;;;;;;;8.80;7.60;;;;;;;;;;738003;186;918643;-72
2021/07/06 06:00:22;;;;;;;9.33;7.40;;;;;;;;;;743873;186;919251;-73
2021/07/06 06:02:48;;;;;;;10.40;8.53;;;;;;;;;;738436;186;945418;-72
2021/07/06 06:05:14;;;;;;;9.77;7.70;;;;;;;;;;739129;187;919268;-73
2021/07/06 06:07:40;;;;;;;8.47;6.90;;;;;;;;;;738920;187;908583;-74
2021/07/06 06:10:06;;;;;;;9.73;6.90;;;;;;;;;;744819;187;875314;-73
2021/07/06 06:12:31;;;;;;;7.20;5.70;;;;;;;;;;738945;186;911008;-74
2021/07/06 06:14:57;;;;;;;6.93;5.97;;;;;;;;;;744073;184;919023;-72
2021/07/06 06:17:23;;;;;;;7.07;5.80;;;;;;;;;;744876;186;910263;-73
2021/07/06 06:19:49;;;;;;;7.90;5.50;;;;;;;;;;740761;186;911741;-72
2021/07/06 06:22:15;;;;;;;9.38;5.80;;;;;;;;;;735703;186;1106617;-72
2021/07/06 06:24:41;;;;;;;7.97;5.50;;;;;;;;;;744174;186;919574;-72
2021/07/06 06:27:06;;;;;;;9.80;5.43;;;;;;;;;;739723;186;943908;-73
2021/07/06 06:29:32;;;;;;;8.80;6.30;;;;;;;;;;741054;186;941988;-73
2021/07/06 06:31:59;;;;;;;7.20;5.90;;;;;;;;;;744262;186;919444;-71
2021/07/06 06:34:25;;;;;;;8.03;4.63;;;;;;;;;;748977;186;921877;-71
2021/07/06 06:36:51;;;;;;;5.47;4.67;;;;;;;;;;744681;186;918640;-71
2021/07/06 06:39:16;;;;;;;9.23;4.60;;;;;;;;;;738912;186;916056;-71
2021/07/06 06:41:42;;;;;;;5.93;4.70;;;;;;;;;;744753;186;879262;-72
2021/07/06 06:44:08;;;;;;;5.67;4.70;;;;;;;;;;741530;187;918359;-71
2021/07/06 06:46:34;;;;;;;5.63;4.10;;;;;;;;;;737514;187;1122689;-71
2021/07/06 06:49:04;;;;;;;5.10;4.00;;;;;;;;;;743335;187;918785;-70
2021/07/06 06:51:26;;;;;;;5.00;4.23;;;;;;;;;;743896;188;919153;-70
2021/07/06 06:53:51;;;;;;;3.80;3.30;;;;;;;;;;739756;187;919286;-71
2021/07/06 06:56:17;;;;;;;4.90;3.73;;;;;;;;;;744693;187;917469;-70
2021/07/06 06:58:44;;;;;;;6.30;4.23;;;;;;;;;;737652;187;884368;-70
2021/07/06 07:01:09;;;;;;;4.40;3.47;;;;;;;;;;734811;188;918701;-70
2021/07/06 07:03:35;;;;;;;4.27;3.20;;;;;;;;;;738052;187;919113;-71
2021/07/06 07:06:01;;;;;;;3.57;2.70;;;;;;;;;;747586;187;919020;-70
2021/07/06 07:08:26;;;;;;;3.63;2.60;;;;;;;;;;741202;187;919492;-70
2021/07/06 07:10:52;;;;;;;4.67;2.83;;;;;;;;;;741848;187;630847;-71
2021/07/06 07:13:18;;;;;;;8.50;3.07;;;;;;;;;;745679;187;637108;-71
2021/07/06 07:15:44;;;;;;;5.40;2.47;;;;;;;;;;742870;186;830072;-72
2021/07/06 07:18:10;;;;;;;3.20;2.33;;;;;;;;;;743929;187;624126;-72
2021/07/06 07:20:36;;;;;;;4.53;2.23;;;;;;;;;;743444;187;623692;-70
2021/07/06 07:23:02;;;;;;;3.20;2.27;;;;;;;;;;742375;186;633589;-72
2021/07/06 07:25:29;;;;;;;3.70;2.37;;;;;;;;;;741417;187;616123;-71
2021/07/06 07:27:53;;;;;;;2.90;2.20;;;;;;;;;;746168;186;636294;-71
2021/07/06 07:30:19;;;;;;;2.50;1.90;;;;;;;;;;744234;186;633778;-70
2021/07/06 07:32:45;;;;;;;2.97;2.27;;;;;;;;;;743163;186;628248;-71
2021/07/06 07:35:11;;;;;;;2.70;2.23;;;;;;;;;;742689;186;618927;-71
2021/07/06 07:37:37;;;;;;;3.63;2.27;;;;;;;;;;747935;186;814133;-71
2021/07/06 07:40:03;;;;;;;3.00;1.90;;;;;;;;;;742818;186;661459;-71
2021/07/06 07:42:29;;;;;;;2.23;1.80;;;;;;;;;;748511;186;622097;-71
2021/07/06 07:44:55;;;;;;;3.67;1.70;;;;;;;;;;746609;186;634285;-71
2021/07/06 07:47:20;;;;;;;2.80;1.90;;;;;;;;;;742413;186;618561;-71
2021/07/06 07:49:46;;;;;;;5.13;2.47;;;;;;;;;;742004;186;645126;-70
2021/07/06 07:52:12;;;;;;;3.60;2.23;;;;;;;;;;745882;187;626121;-70
2021/07/06 07:54:38;;;;;;;2.70;2.20;;;;;;;;;;743742;187;618743;-69
2021/07/06 07:57:06;;;;;;;2.50;1.80;;;;;;;;;;744017;186;628021;-71
2021/07/06 07:59:31;;;;;;;4.10;1.67;;;;;;;;;;743938;187;627001;-69
2021/07/06 08:01:56;;;;;;;3.60;2.10;;;;;;;;;;752447;186;628420;-70
2021/07/06 08:04:21;;;;;;;3.00;2.70;;;;;;;;;;747192;186;620252;-70
2021/07/06 08:06:47;;;;;;;6.67;2.20;;;;;;;;;;741033;187;916621;-69
2021/07/06 08:09:14;;;;;;;3.43;2.20;;;;;;;;;;747328;186;633204;-70
2021/07/06 08:11:40;;;;;;;3.40;1.90;;;;;;;;;;741970;186;637358;-69
2021/07/06 08:14:07;;;;;;;5.20;2.57;;;;;;;;;;741200;187;630175;-69
2021/07/06 08:16:34;;;;;;;4.00;2.07;;;;;;;;;;747650;187;630495;-69
2021/07/06 08:18:59;;;;;;;3.60;2.40;;;;;;;;;;744130;187;643530;-70
2021/07/06 08:21:25;;;;;;;7.43;2.13;;;;;;;;;;743895;187;678802;-69
2021/07/06 08:23:51;;;;;;;4.20;2.10;;;;;;;;;;742104;186;624370;-70
2021/07/06 08:26:17;;;;;;;3.83;1.87;;;;;;;;;;744151;187;711688;-70
2021/07/06 08:28:45;;;;;;;2.58;1.90;;;;;;;;;;747526;187;628604;-69
2021/07/06 08:31:09;;;;;;;2.73;1.80;;;;;;;;;;741557;187;618586;-70
2021/07/06 08:33:35;;;;;;;2.70;1.80;;;;;;;;;;749083;186;619474;-69
2021/07/06 08:36:00;;;;;;;2.73;1.90;;;;;;;;;;743296;187;640693;-70
2021/07/06 08:38:26;;;;;;;5.40;1.87;;;;;;;;;;745131;187;621278;-68
2021/07/06 08:40:53;;;;;;;2.80;1.80;;;;;;;;;;749732;186;620507;-69
2021/07/06 08:43:19;;;;;;;7.37;1.70;;;;;;;;;;747568;186;646068;-68
2021/07/06 08:45:44;;;;;;;3.70;1.80;;;;;;;;;;745581;186;630759;-71
2021/07/06 08:48:11;;;;;;;3.80;1.67;;;;;;;;;;745805;186;632945;-69
2021/07/06 08:50:37;;;;;;;3.70;1.60;;;;;;;;;;750692;186;815766;-68
2021/07/06 08:53:02;;;;;;;4.40;2.10;;;;;;;;;;742950;186;919237;-69
2021/07/06 08:55:28;;;;;;;2.70;2.10;;;;;;;;;;744245;186;638712;-70
2021/07/06 08:57:54;;;;;;;2.43;1.87;;;;;;;;;;748736;187;632976;-70
2021/07/06 09:00:20;;;;;;;5.13;2.00;;;;;;;;;;744428;186;618813;-69
2021/07/06 09:03:01;;;;;;;3.10;1.97;;;;;;;;;;747727;186;626189;-68
2021/07/06 09:05:27;;;;;;;3.47;2.10;;;;;;;;;;744814;187;661920;-68
2021/07/06 09:07:52;;;;;;;2.53;1.87;;;;;;;;;;746524;186;623151;-70
2021/07/06 09:10:19;;;;;;;2.80;2.03;;;;;;;;;;747489;187;634144;-72
2021/07/06 09:12:45;;;;;;;2.27;1.57;;;;;;;;;;744385;187;618157;-68
2021/07/06 09:15:17;;;;;;;4.63;1.77;;;;;;;;;;745936;187;638683;-68
2021/07/06 09:17:42;;;;;;;2.30;1.60;;;;;;;;;;751193;186;615777;-69
2021/07/06 09:20:09;;;;;;;2.63;1.87;;;;;;;;;;740346;187;637664;-68
2021/07/06 09:22:35;;;;;;;2.90;1.80;;;;;;;;;;740473;187;626017;-69
2021/07/06 09:25:02;;;;;;;3.87;1.90;;;;;;;;;;746759;186;624318;-71
2021/07/06 09:27:26;;;;;;;3.57;2.20;;;;;;;;;;743527;187;639893;-66
2021/07/06 09:29:58;;;;;;;3.30;2.40;;;;;;;;;;742129;186;714399;-68
2021/07/06 09:32:24;;;;;;;3.70;2.23;;;;;;;;;;741417;186;641442;-68
2021/07/06 09:34:50;;;;;;;2.43;1.70;;;;;;;;;;750326;187;632920;-69
2021/07/06 09:37:15;;;;;;;4.37;1.62;;;;;;;;;;743108;187;916235;-69
2021/07/06 09:39:41;;;;;;;7.03;2.60;;;;;;;;;;744817;187;624453;-70
2021/07/06 09:42:10;;;;;;;2.60;1.80;;;;;;;;;;744845;187;655175;-69
2021/07/06 09:44:34;;;;;;;4.03;2.33;;;;;;;;;;740611;187;687213;-71
2021/07/06 09:47:03;;;;;;;4.60;2.00;;;;;;;;;;742676;187;639298;-69
2021/07/06 09:49:30;;;;;;;2.60;1.80;;;;;;;;;;745061;186;627781;-69
2021/07/06 09:51:56;;;;;;;4.23;2.27;;;;;;;;;;747051;187;635062;-68
2021/07/06 09:54:22;;;;;;;3.40;1.70;;;;;;;;;;743411;186;628475;-69
2021/07/06 09:56:50;;;;;;;2.93;1.73;;;;;;;;;;742634;186;638972;-69
2021/07/06 09:59:15;;;;;;;4.10;2.00;;;;;;;;;;747930;186;621959;-71
2021/07/06 10:01:40;;;;;;;2.53;1.63;;;;;;;;;;744697;186;707439;-71
2021/07/06 10:04:06;;;;;;;3.30;1.60;;;;;;;;;;745724;186;629802;-68
2021/07/06 10:06:32;;;;;;;2.57;1.40;;;;;;;;;;748580;186;630990;-68
2021/07/06 10:08:58;;;;;;;3.83;1.83;;;;;;;;;;742350;186;628993;-69
2021/07/06 10:11:23;;;;;;;2.83;1.80;;;;;;;;;;742807;187;628341;-70
2021/07/06 10:13:49;;;;;;;3.00;1.40;;;;;;;;;;746650;186;608854;-71
2021/07/06 10:16:15;;;;;;;2.40;1.60;;;;;;;;;;741510;186;677545;-68
2021/07/06 10:18:41;;;;;;;2.30;1.70;;;;;;;;;;742731;186;625898;-69
2021/07/06 10:21:07;;;;;;;2.47;1.60;;;;;;;;;;740903;186;918990;-70
2021/07/06 10:23:34;;;;;;;2.80;1.43;;;;;;;;;;746970;187;625347;-69
2021/07/06 10:25:59;;;;;;;3.00;1.73;;;;;;;;;;743657;186;630189;-69
2021/07/06 10:28:26;;;;;;;2.40;1.60;;;;;;;;;;740372;186;628275;-70
2021/07/06 10:30:52;;;;;;;2.47;1.70;;;;;;;;;;744200;187;628593;-69
2021/07/06 10:33:32;;;;;;;2.10;1.23;;;;;;;;;;741268;186;663750;-67
2021/07/06 10:35:58;;;;;;;2.67;1.77;;;;;;;;;;740396;187;641444;-70
2021/07/06 10:38:42;;;;;;;2.00;1.17;;;;;;;;;;736020;189;625651;-68
2021/07/06 10:41:08;;;;;;;3.17;1.60;;;;;;;;;;742632;186;617956;-71
2021/07/06 10:43:52;;;;;;;2.40;1.50;;;;;;;;;;746667;187;626188;-70
2021/07/06 10:46:30;;;;;;;2.20;1.58;;;;;;;;;;746355;187;639292;-69
2021/07/06 10:48:56;;;;;;;2.40;1.43;;;;;;;;;;749574;187;632116;-68
2021/07/06 10:51:28;;;;;;;2.83;1.20;;;;;;;;;;742052;187;643967;-70
2021/07/06 10:54:11;;;;;;;2.30;1.50;;;;;;;;;;742501;186;635869;-68
2021/07/06 10:56:37;;;;;;;4.28;1.40;;;;;;;;;;741558;187;913126;-69
2021/07/06 10:59:05;;;;;;;4.20;1.60;;;;;;;;;;738551;187;630101;-69
2021/07/06 11:01:34;;;;;;;4.40;1.73;;;;;;;;;;748051;186;616675;-72
2021/07/06 11:04:00;;;;;;;4.10;2.30;;;;;;;;;;747165;186;622791;-71
2021/07/06 11:06:46;;;;;;;3.30;1.30;;;;;;;;;;741450;186;665159;-68
2021/07/06 11:09:12;;;;;;;2.30;1.50;;;;;;;;;;744479;186;634679;-68
2021/07/06 11:11:38;;;;;;;4.33;1.53;;;;;;;;;;742187;186;1013667;-68
2021/07/06 11:14:19;;;;;;;2.97;1.50;;;;;;;;;;750144;186;614516;-69
2021/07/06 11:16:44;;;;;;;2.40;1.47;;;;;;;;;;747688;186;620257;-69
2021/07/06 11:19:25;;;;;;;5.37;1.80;;;;;;;;;;742097;186;632669;-68
2021/07/06 11:21:51;;;;;;;2.60;1.77;;;;;;;;;;743240;186;875233;-69
2021/07/06 11:24:17;;;;;;;2.45;1.52;;;;;;;;;;740580;186;917502;-68
2021/07/06 11:26:44;;;;;;;3.53;1.63;;;;;;;;;;747039;186;635313;-69
2021/07/06 11:29:09;;;;;;;2.63;1.83;;;;;;;;;;744363;186;624614;-71
2021/07/06 11:31:34;;;;;;;3.23;2.00;;;;;;;;;;743261;187;631731;-70
2021/07/06 11:34:04;;;;;;;2.97;2.13;;;;;;;;;;746528;187;664731;-69
2021/07/06 11:36:28;;;;;;;2.20;1.40;;;;;;;;;;743635;187;619975;-68
2021/07/06 11:38:54;;;;;;;2.40;1.60;;;;;;;;;;741392;186;659618;-69
2021/07/06 11:41:18;;;;;;;3.03;1.80;;;;;;;;;;746763;186;625278;-69
2021/07/06 11:43:44;;;;;;;4.87;2.00;;;;;;;;;;743419;187;637733;-67
2021/07/06 11:46:10;;;;;;;2.30;1.50;;;;;;;;;;743075;186;637774;-68
2021/07/06 11:48:37;;;;;;;2.10;1.47;;;;;;;;;;744057;187;770780;-71
2021/07/06 11:51:03;;;;;;;2.83;1.50;;;;;;;;;;746309;187;659100;-71
2021/07/06 11:53:29;;;;;;;2.93;1.50;;;;;;;;;;740908;186;615993;-69
2021/07/06 11:55:55;;;;;;;3.28;1.77;;;;;;;;;;744318;186;618492;-71
2021/07/06 11:58:21;;;;;;;2.43;1.57;;;;;;;;;;747686;187;624908;-69
2021/07/06 12:00:47;;;;;;;2.67;1.93;;;;;;;;;;743388;187;633922;-69
2021/07/06 12:03:13;;;;;;;2.80;1.87;;;;;;;;;;740613;187;919858;-68
2021/07/06 12:05:39;;;;;;;2.40;1.70;;;;;;;;;;746503;187;633402;-69
2021/07/06 12:08:11;;;;;;;2.87;1.40;;;;;;;;;;743174;186;623865;-69
2021/07/06 12:10:43;;;;;;;2.17;1.40;;;;;;;;;;740535;186;639287;-72
2021/07/06 12:13:08;;;;;;;2.70;1.70;;;;;;;;;;749379;184;915347;-70
2021/07/06 12:15:35;;;;;;;2.47;1.60;;;;;;;;;;747919;186;623392;-69
2021/07/06 12:18:01;;;;;;;3.73;1.70;;;;;;;;;;738531;186;919272;-68
2021/07/06 12:20:27;;;;;;;2.50;1.60;;;;;;;;;;742344;186;620647;-73
2021/07/06 12:22:53;;;;;;;3.93;1.83;;;;;;;;;;742849;186;626490;-70
2021/07/06 12:25:18;;;;;;;2.90;1.80;;;;;;;;;;747427;186;658141;-69
2021/07/06 12:27:44;;;;;;;2.90;1.87;;;;;;;;;;743606;186;634777;-69
2021/07/06 12:30:10;;;;;;;3.03;1.90;;;;;;;;;;747771;186;633264;-68
2021/07/06 12:32:36;;;;;;;2.77;1.80;;;;;;;;;;740878;187;919297;-69
2021/07/06 12:35:04;;;;;;;2.80;1.80;;;;;;;;;;742264;187;622635;-70
2021/07/06 12:37:28;;;;;;;3.10;1.43;;;;;;;;;;742958;187;628015;-69
2021/07/06 12:40:09;;;;;;;2.87;1.90;;;;;;;;;;745042;187;622918;-68
2021/07/06 12:42:36;;;;;;;3.93;1.97;;;;;;;;;;751900;186;626742;-69
2021/07/06 12:45:03;;;;;;;2.27;1.53;;;;;;;;;;744001;187;630054;-68
2021/07/06 12:47:30;;;;;;;3.53;1.97;;;;;;;;;;743838;186;639559;-72
2021/07/06 12:49:56;;;;;;;2.57;1.90;;;;;;;;;;743526;186;622853;-69
2021/07/06 12:52:21;;;;;;;8.10;1.57;;;;;;;;;;748464;187;624501;-69
2021/07/06 12:54:47;;;;;;;2.80;1.90;;;;;;;;;;743772;187;624328;-69
2021/07/06 12:57:13;;;;;;;2.87;2.00;;;;;;;;;;743213;186;621088;-74
2021/07/06 12:59:39;;;;;;;8.60;2.30;;;;;;;;;;745412;186;611654;-71
2021/07/06 13:02:10;;;;;;;3.40;1.70;;;;;;;;;;744208;186;630181;-73
2021/07/06 13:04:42;;;;;;;3.90;2.00;;;;;;;;;;742064;186;620153;-72
2021/07/06 13:07:08;;;;;;;2.20;1.60;;;;;;;;;;744428;186;625676;-70
2021/07/06 13:09:34;;;;;;;2.40;1.40;;;;;;;;;;746257;187;614898;-70
2021/07/06 13:11:59;;;;;;;3.23;1.90;;;;;;;;;;742067;187;620698;-69
2021/07/06 13:14:25;;;;;;;2.80;2.17;;;;;;;;;;740997;186;626776;-70
2021/07/06 13:16:51;;;;;;;2.50;1.93;;;;;;;;;;748233;186;624436;-70
2021/07/06 13:19:17;;;;;;;2.40;1.67;;;;;;;;;;744805;187;629402;-71
2021/07/06 13:21:43;;;;;;;2.20;1.47;;;;;;;;;;744732;186;631312;-71
2021/07/06 13:24:09;;;;;;;3.67;2.20;;;;;;;;;;745132;186;906095;-70
2021/07/06 13:26:35;;;;;;;2.10;1.40;;;;;;;;;;745565;186;916911;-70
2021/07/06 13:29:01;;;;;;;2.60;1.63;;;;;;;;;;743747;186;633361;-74
2021/07/06 13:31:26;;;;;;;3.58;1.90;;;;;;;;;;741383;186;1003448;-70
2021/07/06 13:33:52;;;;;;;8.20;2.00;;;;;;;;;;746646;186;631804;-70
2021/07/06 13:36:18;;;;;;;2.80;1.90;;;;;;;;;;741074;186;627145;-70
2021/07/06 13:38:44;;;;;;;2.93;2.13;;;;;;;;;;743266;186;634991;-71
2021/07/06 13:41:10;;;;;;;2.37;1.93;;;;;;;;;;747206;186;628298;-70
2021/07/06 13:43:36;;;;;;;2.67;1.90;;;;;;;;;;741789;186;921994;-72
2021/07/06 13:46:01;;;;;;;2.83;1.70;;;;;;;;;;743964;187;629617;-71
2021/07/06 13:48:27;;;;;;;3.03;2.20;;;;;;;;;;747135;186;633895;-70
2021/07/06 13:50:53;;;;;;;2.63;2.13;;;;;;;;;;742681;187;620544;-72
2021/07/06 13:53:19;;;;;;;3.37;2.27;;;;;;;;;;742121;186;630217;-70
2021/07/06 13:55:45;;;;;;;3.80;2.17;;;;;;;;;;739165;186;946104;-70
2021/07/06 13:58:12;;;;;;;3.00;1.97;;;;;;;;;;744570;186;623011;-69
2021/07/06 14:00:37;;;;;;;2.73;2.20;;;;;;;;;;741960;186;625388;-70
2021/07/06 14:03:04;;;;;;;3.07;2.00;;;;;;;;;;743721;186;633254;-70
2021/07/06 14:05:28;;;;;;;6.13;1.97;;;;;;;;;;746306;186;619152;-71
2021/07/06 14:07:54;;;;;;;2.47;1.70;;;;;;;;;;743744;186;635460;-71
2021/07/06 14:10:20;;;;;;;3.97;2.40;;;;;;;;;;743505;187;625554;-71
2021/07/06 14:12:46;;;;;;;2.40;1.70;;;;;;;;;;745666;187;616446;-71
2021/07/06 14:15:12;;;;;;;2.73;2.03;;;;;;;;;;741588;186;821050;-74
2021/07/06 14:17:37;;;;;;;2.60;2.00;;;;;;;;;;741565;187;637696;-74